createdAt,value
2018-12-20T00:00:22.546Z,30.48
2018-12-20T00:02:50.439Z,30.17
2018-12-20T00:05:18.255Z,30.08
2018-12-20T00:07:46.163Z,29.70
2018-12-20T00:10:14.126Z,30.37
2018-12-20T00:12:42.009Z,30.92
2018-12-20T00:15:09.790Z,28.85
2018-12-20T00:17:43.375Z,30.32
2018-12-20T00:20:11.268Z,31.30
2018-12-20T00:22:39.276Z,29.02
2018-12-20T00:25:08.029Z,30.43
2018-12-20T00:27:36.604Z,29.55
2018-12-20T00:30:05.226Z,28.95
2018-12-20T00:32:33.180Z,28.77
2018-12-20T00:35:01.118Z,29.82
2018-12-20T00:37:28.979Z,30.00
2018-12-20T00:39:56.844Z,29.27
2018-12-20T00:42:24.727Z,28.35
2018-12-20T00:44:52.571Z,30.65
2018-12-20T00:47:20.335Z,30.35
2018-12-20T00:49:48.297Z,30.80
2018-12-20T00:52:16.789Z,30.95
2018-12-20T00:54:44.657Z,31.25
2018-12-20T00:57:12.520Z,28.90
2018-12-20T00:59:40.386Z,28.55
2018-12-20T01:02:08.661Z,32.55
2018-12-20T01:04:36.648Z,32.45
2018-12-20T01:07:06.288Z,28.65
2018-12-20T01:09:34.225Z,30.45
2018-12-20T01:12:02.867Z,31.33
2018-12-20T01:14:31.567Z,33.60
2018-12-20T01:16:59.687Z,31.77
2018-12-20T01:19:28.183Z,31.07
2018-12-20T01:21:56.045Z,29.18
2018-12-20T01:24:23.969Z,30.92
2018-12-20T01:26:52.668Z,31.57
2018-12-20T01:29:20.602Z,31.80
2018-12-20T01:31:48.506Z,30.60
2018-12-20T01:34:16.351Z,30.70
2018-12-20T01:36:44.223Z,31.30
2018-12-20T01:39:12.118Z,31.90
2018-12-20T01:41:39.984Z,33.88
2018-12-20T01:44:08.043Z,33.00
2018-12-20T01:46:36.569Z,31.75
2018-12-20T01:49:04.649Z,32.38
2018-12-20T01:51:33.134Z,33.60
2018-12-20T01:54:01.053Z,32.75
2018-12-20T01:56:29.614Z,33.50
2018-12-20T01:58:57.382Z,34.67
2018-12-20T02:01:25.304Z,32.45
2018-12-20T02:03:53.740Z,33.15
2018-12-20T02:06:24.411Z,35.50
2018-12-20T02:08:54.063Z,33.18
2018-12-20T02:11:25.457Z,38.02
2018-12-20T02:13:53.383Z,35.03
2018-12-20T02:16:21.230Z,35.17
2018-12-20T02:18:49.068Z,36.33
2018-12-20T02:21:16.888Z,37.03
2018-12-20T02:23:44.668Z,33.28
2018-12-20T02:26:12.647Z,35.58
2018-12-20T02:28:40.707Z,36.23
2018-12-20T02:31:09.272Z,36.50
2018-12-20T02:33:37.385Z,36.10
2018-12-20T02:36:06.061Z,35.15
2018-12-20T02:38:34.567Z,36.40
2018-12-20T02:41:02.428Z,35.75
2018-12-20T02:43:30.353Z,34.63
2018-12-20T02:45:58.214Z,34.05
2018-12-20T02:48:25.980Z,34.73
2018-12-20T02:50:54.458Z,35.20
2018-12-20T02:53:22.430Z,37.25
2018-12-20T02:55:50.908Z,35.55
2018-12-20T02:58:18.741Z,34.33
2018-12-20T03:00:46.656Z,35.55
2018-12-20T03:03:14.788Z,36.25
2018-12-20T03:05:43.437Z,35.23
2018-12-20T03:08:11.991Z,35.73
2018-12-20T03:10:40.034Z,36.03
2018-12-20T03:13:08.542Z,36.20
2018-12-20T03:15:36.412Z,35.40
2018-12-20T03:18:05.368Z,34.75
2018-12-20T03:20:34.040Z,35.78
2018-12-20T03:23:02.086Z,35.92
2018-12-20T03:25:30.642Z,35.80
2018-12-20T03:27:58.500Z,36.17
2018-12-20T03:30:26.442Z,35.28
2018-12-20T03:32:55.458Z,34.73
2018-12-20T03:35:24.217Z,37.80
2018-12-20T03:37:52.748Z,36.35
2018-12-20T03:40:20.744Z,38.08
2018-12-20T03:42:49.568Z,35.92
2018-12-20T03:45:18.071Z,35.78
2018-12-20T03:47:45.836Z,34.25
2018-12-20T03:50:13.761Z,37.20
2018-12-20T03:52:42.445Z,33.48
2018-12-20T03:55:10.979Z,36.68
2018-12-20T03:57:38.973Z,34.88
2018-12-20T04:00:07.629Z,35.43
2018-12-20T04:02:36.321Z,34.43
2018-12-20T04:05:05.356Z,35.25
2018-12-20T04:07:33.996Z,37.40
2018-12-20T04:10:02.654Z,34.13
2018-12-20T04:12:31.204Z,36.03
2018-12-20T04:14:59.303Z,35.13
2018-12-20T04:17:27.893Z,37.17
2018-12-20T04:19:56.578Z,37.58
2018-12-20T04:22:24.469Z,35.25
2018-12-20T04:24:52.254Z,37.17
2018-12-20T04:27:20.107Z,34.25
2018-12-20T04:29:48.073Z,36.68
2018-12-20T04:32:16.562Z,38.98
2018-12-20T04:34:44.429Z,37.53
2018-12-20T04:37:12.226Z,40.00
2018-12-20T04:39:40.162Z,35.78
2018-12-20T04:42:08.229Z,34.95
2018-12-20T04:44:36.600Z,36.93
2018-12-20T04:47:04.480Z,48.40
2018-12-20T04:49:32.334Z,44.88
2018-12-20T04:52:00.326Z,39.38
2018-12-20T04:54:28.169Z,34.60
2018-12-20T04:56:56.027Z,36.30
2018-12-20T04:59:23.941Z,36.95
2018-12-20T05:01:52.111Z,36.93
2018-12-20T05:04:20.967Z,35.52
2018-12-20T05:06:48.834Z,38.17
2018-12-20T05:09:16.668Z,39.33
2018-12-20T05:11:45.284Z,33.83
2018-12-20T05:14:13.151Z,35.15
2018-12-20T05:16:40.966Z,35.73
2018-12-20T05:19:08.781Z,37.03
2018-12-20T05:21:36.921Z,34.10
2018-12-20T05:24:05.437Z,35.95
2018-12-20T05:26:33.508Z,36.93
2018-12-20T05:29:02.200Z,38.15
2018-12-20T05:31:30.744Z,37.15
2018-12-20T05:33:59.260Z,37.73
2018-12-20T05:36:27.257Z,37.30
2018-12-20T05:38:55.842Z,39.23
2018-12-20T05:41:24.394Z,39.67
2018-12-20T05:43:52.093Z,37.35
2018-12-20T05:46:20.080Z,38.13
2018-12-20T05:48:48.636Z,36.23
2018-12-20T05:51:16.590Z,37.20
2018-12-20T05:53:44.446Z,39.80
2018-12-20T05:56:12.240Z,44.30
2018-12-20T05:58:40.093Z,37.78
2018-12-20T06:01:08.187Z,37.73
2018-12-20T06:03:36.528Z,36.23
2018-12-20T06:06:05.258Z,38.38
2018-12-20T06:08:33.358Z,37.50
2018-12-20T06:11:02.007Z,38.85
2018-12-20T06:13:30.552Z,39.08
2018-12-20T06:15:58.452Z,36.77
2018-12-20T06:18:26.601Z,38.25
2018-12-20T06:20:55.089Z,38.85
2018-12-20T06:23:22.941Z,39.13
2018-12-20T06:25:50.705Z,39.63
2018-12-20T06:28:18.471Z,38.70
2018-12-20T06:30:46.233Z,36.55
2018-12-20T06:33:13.936Z,39.55
2018-12-20T06:35:41.762Z,39.30
2018-12-20T06:38:09.629Z,37.73
2018-12-20T06:40:37.397Z,39.03
2018-12-20T06:43:05.260Z,38.88
2018-12-20T06:45:32.961Z,38.35
2018-12-20T06:48:00.789Z,38.95
2018-12-20T06:50:28.553Z,38.25
2018-12-20T06:52:56.421Z,38.80
2018-12-20T06:55:24.288Z,39.95
2018-12-20T06:57:52.154Z,38.13
2018-12-20T07:00:20.020Z,37.05
2018-12-20T07:02:47.784Z,37.73
2018-12-20T07:05:15.485Z,37.15
2018-12-20T07:07:43.312Z,39.60
2018-12-20T07:10:11.083Z,41.65
2018-12-20T07:12:38.840Z,39.65
2018-12-20T07:15:08.038Z,38.60
2018-12-20T07:17:35.802Z,39.33
2018-12-20T07:20:04.536Z,39.48
2018-12-20T07:22:32.355Z,39.70
2018-12-20T07:25:00.118Z,38.25
2018-12-20T07:27:27.984Z,38.00
2018-12-20T07:29:55.750Z,38.15
2018-12-20T07:32:25.225Z,39.38
2018-12-20T07:34:53.325Z,38.02
2018-12-20T07:37:21.088Z,39.83
2018-12-20T07:39:48.852Z,41.55
2018-12-20T07:42:16.720Z,39.60
2018-12-20T07:44:44.588Z,40.90
2018-12-20T07:47:12.296Z,41.45
2018-12-20T07:49:40.115Z,39.80
2018-12-20T07:52:07.980Z,40.15
2018-12-20T07:54:35.847Z,40.35
2018-12-20T07:57:03.712Z,41.80
2018-12-20T07:59:31.579Z,40.60
2018-12-20T08:01:59.445Z,40.95
2018-12-20T08:04:27.313Z,41.18
2018-12-20T08:06:55.178Z,40.70
2018-12-20T08:09:22.941Z,40.83
2018-12-20T08:11:50.706Z,43.63
2018-12-20T08:14:18.470Z,42.85
2018-12-20T08:16:46.414Z,41.92
2018-12-20T08:19:14.817Z,40.15
2018-12-20T08:21:42.683Z,38.83
2018-12-20T08:24:10.447Z,35.80
2018-12-20T08:26:38.314Z,38.75
2018-12-20T08:29:06.078Z,39.48
2018-12-20T08:31:33.842Z,40.95
2018-12-20T08:34:01.607Z,40.20
2018-12-20T08:36:29.472Z,43.65
2018-12-20T08:38:57.236Z,41.45
2018-12-20T08:41:25.109Z,41.95
2018-12-20T08:43:52.867Z,41.13
2018-12-20T08:46:20.633Z,40.23
2018-12-20T08:48:48.478Z,39.20
2018-12-20T08:51:16.262Z,41.85
2018-12-20T08:53:44.026Z,42.20
2018-12-20T08:56:11.892Z,41.55
2018-12-20T08:58:39.657Z,42.88
2018-12-20T09:01:07.523Z,43.30
2018-12-20T09:03:35.390Z,41.37
2018-12-20T09:06:03.257Z,44.90
2018-12-20T09:08:31.021Z,45.92
2018-12-20T09:10:58.790Z,43.80
2018-12-20T09:13:26.549Z,43.00
2018-12-20T09:15:54.415Z,43.42
2018-12-20T09:18:22.284Z,43.50
2018-12-20T09:20:50.150Z,42.05
2018-12-20T09:23:18.016Z,43.17
2018-12-20T09:25:45.780Z,40.85
2018-12-20T09:28:13.646Z,41.83
2018-12-20T09:30:41.411Z,42.88
2018-12-20T09:33:09.277Z,42.95
2018-12-20T09:35:37.041Z,40.65
2018-12-20T09:38:04.806Z,42.60
2018-12-20T09:40:32.595Z,39.63
2018-12-20T09:43:00.538Z,43.17
2018-12-20T09:45:28.509Z,44.48
2018-12-20T09:47:58.425Z,43.00
2018-12-20T09:50:26.290Z,43.48
2018-12-20T09:52:54.054Z,42.03
2018-12-20T09:55:21.818Z,45.00
2018-12-20T09:57:49.582Z,45.28
2018-12-20T10:00:17.346Z,44.75
2018-12-20T10:02:45.214Z,44.10
2018-12-20T10:05:13.029Z,43.13
2018-12-20T10:07:40.895Z,45.15
2018-12-20T10:10:08.812Z,43.83
2018-12-20T10:12:36.577Z,43.48
2018-12-20T10:15:05.570Z,44.55
2018-12-20T10:17:33.453Z,61.02
2018-12-20T10:20:01.302Z,51.23
2018-12-20T10:22:29.118Z,44.15
2018-12-20T10:24:56.935Z,44.00
2018-12-20T10:27:31.394Z,46.23
2018-12-20T10:29:54.512Z,46.65
2018-12-20T10:32:22.376Z,41.58
2018-12-20T10:34:50.080Z,46.55
2018-12-20T10:37:17.905Z,44.03
2018-12-20T10:39:45.669Z,46.80
2018-12-20T10:42:13.535Z,43.45
2018-12-20T10:44:41.300Z,44.15
2018-12-20T10:47:14.799Z,44.67
2018-12-20T10:49:42.666Z,46.90
2018-12-20T10:52:10.476Z,44.27
2018-12-20T10:54:38.296Z,44.67
2018-12-20T10:57:06.163Z,43.23
2018-12-20T10:59:33.926Z,46.40
2018-12-20T11:02:07.528Z,46.33
2018-12-20T11:04:41.129Z,47.67
2018-12-20T11:07:14.831Z,46.58
2018-12-20T11:09:48.433Z,46.48
2018-12-20T11:12:18.351Z,44.20
2018-12-20T11:14:46.214Z,46.55
2018-12-20T11:17:13.979Z,45.85
2018-12-20T11:19:41.845Z,45.00
2018-12-20T11:22:09.714Z,43.58
2018-12-20T11:24:37.476Z,45.23
2018-12-20T11:27:05.242Z,46.77
2018-12-20T11:29:33.107Z,47.48
2018-12-20T11:32:00.974Z,45.52
2018-12-20T11:34:28.677Z,44.73
2018-12-20T11:36:56.507Z,47.88
2018-12-20T11:39:24.369Z,44.45
2018-12-20T11:41:52.135Z,49.33
2018-12-20T11:44:19.896Z,42.90
2018-12-20T11:46:49.080Z,47.67
2018-12-20T11:49:17.473Z,45.43
2018-12-20T11:51:45.238Z,44.40
2018-12-20T11:54:13.105Z,47.20
2018-12-20T11:56:40.869Z,48.33
2018-12-20T11:59:08.633Z,45.10
2018-12-20T12:01:36.501Z,45.12
2018-12-20T12:04:04.265Z,43.20
2018-12-20T12:06:32.028Z,43.15
2018-12-20T12:08:59.792Z,43.52
2018-12-20T12:11:27.574Z,78.00
2018-12-20T12:13:55.423Z,69.65
2018-12-20T12:16:23.290Z,44.40
2018-12-20T12:18:51.053Z,45.30
2018-12-20T12:21:18.818Z,44.27
2018-12-20T12:23:46.582Z,43.23
2018-12-20T12:26:14.449Z,44.88
2018-12-20T12:28:42.167Z,48.58
2018-12-20T12:31:09.977Z,45.67
2018-12-20T12:33:37.689Z,45.83
2018-12-20T12:36:05.506Z,44.98
2018-12-20T12:38:33.372Z,46.65
2018-12-20T12:41:01.239Z,44.85
2018-12-20T12:43:29.003Z,43.58
2018-12-20T12:45:56.767Z,49.50
2018-12-20T12:48:24.634Z,44.38
2018-12-20T12:50:52.402Z,44.95
2018-12-20T12:53:21.494Z,46.75
2018-12-20T12:55:49.460Z,64.37
2018-12-20T12:58:17.329Z,57.75
2018-12-20T13:00:45.197Z,67.62
2018-12-20T13:03:13.062Z,56.58
2018-12-20T13:05:40.829Z,75.92
2018-12-20T13:08:08.693Z,56.35
2018-12-20T13:10:36.458Z,62.83
2018-12-20T13:13:04.324Z,52.90
2018-12-20T13:15:32.137Z,51.02
2018-12-20T13:17:59.955Z,50.75
2018-12-20T13:20:27.719Z,56.48
2018-12-20T13:22:55.459Z,53.73
2018-12-20T13:25:23.247Z,52.40
2018-12-20T13:27:51.114Z,59.48
2018-12-20T13:30:18.880Z,56.20
2018-12-20T13:32:46.744Z,48.33
2018-12-20T13:35:14.613Z,49.85
2018-12-20T13:37:42.479Z,48.17
2018-12-20T13:40:10.344Z,52.58
2018-12-20T13:42:38.157Z,41.58
2018-12-20T13:45:05.976Z,53.17
2018-12-20T13:47:33.842Z,49.85
2018-12-20T13:50:01.709Z,53.48
2018-12-20T13:52:31.624Z,52.88
2018-12-20T13:54:59.388Z,52.30
2018-12-20T13:57:27.254Z,52.25
2018-12-20T13:59:55.121Z,48.60
2018-12-20T14:02:22.989Z,51.37
2018-12-20T14:04:50.753Z,48.68
2018-12-20T14:07:18.516Z,50.73
2018-12-20T14:09:46.384Z,48.45
2018-12-20T14:12:14.249Z,48.35
2018-12-20T14:14:42.119Z,48.45
2018-12-20T14:17:09.882Z,43.40
2018-12-20T14:19:37.747Z,48.98
2018-12-20T14:22:05.511Z,45.60
2018-12-20T14:24:33.323Z,57.67
2018-12-20T14:27:02.068Z,49.70
2018-12-20T14:29:29.933Z,60.60
2018-12-20T14:31:57.796Z,62.40
2018-12-20T14:34:25.560Z,53.17
2018-12-20T14:36:53.325Z,57.20
2018-12-20T14:39:21.089Z,53.48
2018-12-20T14:41:48.853Z,56.55
2018-12-20T14:44:16.720Z,56.53
2018-12-20T14:46:44.485Z,54.35
2018-12-20T14:49:12.351Z,47.62
2018-12-20T14:51:40.217Z,57.20
2018-12-20T14:54:08.084Z,53.23
2018-12-20T14:56:35.848Z,50.45
2018-12-20T14:59:03.616Z,53.90
2018-12-20T15:01:31.377Z,56.00
2018-12-20T15:03:59.141Z,58.15
2018-12-20T15:06:26.905Z,53.02
2018-12-20T15:08:54.616Z,59.08
2018-12-20T15:11:22.434Z,62.17
2018-12-20T15:13:50.300Z,59.75
2018-12-20T15:16:18.166Z,55.75
2018-12-20T15:18:47.787Z,57.75
2018-12-20T15:21:15.948Z,61.73
2018-12-20T15:23:43.712Z,61.08
2018-12-20T15:26:11.525Z,47.98
2018-12-20T15:28:39.343Z,54.08
2018-12-20T15:31:07.208Z,65.78
2018-12-20T15:33:35.076Z,75.10
2018-12-20T15:36:02.942Z,62.43
2018-12-20T15:38:30.810Z,56.35
2018-12-20T15:40:58.675Z,50.12
2018-12-20T15:43:26.441Z,56.77
2018-12-20T15:45:54.149Z,53.98
2018-12-20T15:48:21.913Z,53.28
2018-12-20T15:50:49.733Z,61.23
2018-12-20T15:53:17.601Z,57.85
2018-12-20T15:55:45.319Z,54.75
2018-12-20T15:58:13.128Z,54.90
2018-12-20T16:00:40.994Z,51.30
2018-12-20T16:03:08.861Z,49.42
2018-12-20T16:05:36.730Z,57.08
2018-12-20T16:08:06.337Z,58.40
2018-12-20T16:10:34.201Z,95.87
2018-12-20T16:13:01.966Z,51.68
2018-12-20T16:15:29.832Z,77.10
2018-12-20T16:17:57.597Z,86.12
2018-12-20T16:20:26.238Z,69.92
2018-12-20T16:22:54.047Z,64.05
2018-12-20T16:25:21.913Z,66.70
2018-12-20T16:27:51.316Z,52.80
2018-12-20T16:30:19.184Z,56.48
2018-12-20T16:32:46.947Z,55.10
2018-12-20T16:35:14.814Z,59.23
2018-12-20T16:37:42.680Z,57.93
2018-12-20T16:40:10.547Z,56.08
2018-12-20T16:42:38.311Z,50.52
2018-12-20T16:45:06.179Z,50.25
2018-12-20T16:47:33.943Z,56.77
2018-12-20T16:50:01.808Z,50.08
2018-12-20T16:52:29.512Z,54.10
2018-12-20T16:54:57.336Z,51.95
2018-12-20T16:57:25.204Z,52.30
2018-12-20T16:59:53.074Z,52.85
2018-12-20T17:02:20.938Z,51.48
2018-12-20T17:04:48.701Z,51.73
2018-12-20T17:07:16.464Z,50.23
2018-12-20T17:09:44.232Z,53.95
2018-12-20T17:12:12.197Z,61.55
2018-12-20T17:14:40.065Z,62.80
2018-12-20T17:17:07.832Z,59.05
2018-12-20T17:19:35.593Z,56.10
2018-12-20T17:22:03.460Z,62.50
2018-12-20T17:24:31.327Z,59.98
2018-12-20T17:26:59.194Z,58.00
2018-12-20T17:29:27.111Z,57.30
2018-12-20T17:31:55.028Z,57.80
2018-12-20T17:34:22.896Z,157.12
2018-12-20T17:36:50.762Z,57.25
2018-12-20T17:39:18.526Z,53.98
2018-12-20T17:41:46.347Z,57.45
2018-12-20T17:44:14.157Z,55.12
2018-12-20T17:46:42.027Z,56.90
2018-12-20T17:49:09.894Z,55.48
2018-12-20T17:51:37.759Z,54.73
2018-12-20T17:54:05.625Z,54.60
2018-12-20T17:56:33.880Z,57.40
2018-12-20T17:59:02.483Z,58.02
2018-12-20T18:01:30.351Z,53.20
2018-12-20T18:03:58.117Z,55.80
2018-12-20T18:06:26.085Z,58.63
2018-12-20T18:08:53.897Z,59.50
2018-12-20T18:11:21.714Z,60.03
2018-12-20T18:13:49.436Z,59.27
2018-12-20T18:16:17.243Z,57.62
2018-12-20T18:18:45.110Z,54.75
2018-12-20T18:21:12.873Z,58.95
2018-12-20T18:23:40.743Z,61.65
2018-12-20T18:26:08.508Z,59.45
2018-12-20T18:28:36.371Z,62.23
2018-12-20T18:31:04.182Z,60.78
2018-12-20T18:33:32.002Z,61.20
2018-12-20T18:35:59.739Z,60.25
2018-12-20T18:38:27.530Z,60.08
2018-12-20T18:40:55.349Z,58.20
2018-12-20T18:43:23.162Z,56.55
2018-12-20T18:45:51.028Z,62.45
2018-12-20T18:48:18.794Z,62.45
2018-12-20T18:50:46.559Z,59.63
2018-12-20T18:53:14.423Z,62.40
2018-12-20T18:55:42.290Z,58.45
2018-12-20T18:58:10.156Z,57.62
2018-12-20T19:00:37.921Z,57.98
2018-12-20T19:03:05.632Z,63.60
2018-12-20T19:05:33.449Z,61.88
2018-12-20T19:08:01.213Z,62.98
2018-12-20T19:10:29.081Z,61.68
2018-12-20T19:12:56.896Z,63.55
2018-12-20T19:15:24.715Z,60.10
2018-12-20T19:17:52.578Z,74.92
2018-12-20T19:20:20.344Z,70.20
2018-12-20T19:22:48.211Z,68.45
2018-12-20T19:25:16.085Z,66.00
2018-12-20T19:27:43.840Z,56.65
2018-12-20T19:30:11.708Z,56.85
2018-12-20T19:32:39.582Z,60.75
2018-12-20T19:35:07.439Z,59.58
2018-12-20T19:37:35.307Z,58.45
2018-12-20T19:40:03.528Z,58.28
2018-12-20T19:42:31.346Z,61.35
2018-12-20T19:44:59.217Z,55.55
2018-12-20T19:47:27.080Z,60.45
2018-12-20T19:49:54.948Z,68.57
2018-12-20T19:52:22.814Z,61.65
2018-12-20T19:54:50.680Z,66.10
2018-12-20T19:57:18.547Z,62.80
2018-12-20T19:59:46.311Z,67.27
2018-12-20T20:02:14.077Z,74.70
2018-12-20T20:04:41.844Z,60.30
2018-12-20T20:07:09.604Z,64.58
2018-12-20T20:09:37.471Z,63.87
2018-12-20T20:12:05.238Z,57.00
2018-12-20T20:14:33.108Z,60.33
2018-12-20T20:17:00.912Z,57.05
2018-12-20T20:19:28.733Z,58.10
2018-12-20T20:21:56.599Z,62.27
2018-12-20T20:24:24.365Z,62.33
2018-12-20T20:26:52.133Z,61.98
2018-12-20T20:29:19.996Z,59.75
2018-12-20T20:31:47.861Z,58.08
2018-12-20T20:34:15.672Z,56.60
2018-12-20T20:36:43.492Z,59.20
2018-12-20T20:39:11.256Z,60.48
2018-12-20T20:41:39.123Z,59.53
2018-12-20T20:44:06.990Z,63.33
2018-12-20T20:46:34.754Z,59.88
2018-12-20T20:49:02.620Z,59.45
2018-12-20T20:51:30.386Z,60.60
2018-12-20T20:53:58.364Z,55.92
2018-12-20T20:56:26.838Z,55.08
2018-12-20T20:58:54.600Z,56.48
2018-12-20T21:01:22.365Z,54.35
2018-12-20T21:03:50.128Z,53.90
2018-12-20T21:06:17.995Z,55.17
2018-12-20T21:08:45.759Z,53.02
2018-12-20T21:11:13.626Z,57.65
2018-12-20T21:13:41.492Z,56.13
2018-12-20T21:16:09.256Z,58.23
2018-12-20T21:18:37.021Z,60.00
2018-12-20T21:21:04.840Z,58.73
2018-12-20T21:23:32.652Z,57.93
2018-12-20T21:26:00.518Z,58.38
2018-12-20T21:28:28.386Z,61.37
2018-12-20T21:30:56.252Z,55.80
2018-12-20T21:33:24.017Z,54.18
2018-12-20T21:35:51.781Z,52.27
2018-12-20T21:38:19.545Z,51.20
2018-12-20T21:40:47.311Z,51.55
2018-12-20T21:43:15.073Z,49.93
2018-12-20T21:45:42.837Z,51.42
2018-12-20T21:48:10.704Z,50.17
2018-12-20T21:50:39.070Z,54.25
2018-12-20T21:53:07.752Z,51.90
2018-12-20T21:55:35.533Z,49.00
2018-12-20T21:58:03.401Z,51.60
2018-12-20T22:00:31.169Z,50.70
2018-12-20T22:02:59.035Z,50.85
2018-12-20T22:05:26.795Z,48.65
2018-12-20T22:07:54.608Z,52.23
2018-12-20T22:10:22.426Z,52.83
2018-12-20T22:12:50.194Z,52.30
2018-12-20T22:15:18.057Z,50.52
2018-12-20T22:17:45.826Z,48.80
2018-12-20T22:20:13.688Z,47.15
2018-12-20T22:22:41.452Z,48.55
2018-12-20T22:25:09.219Z,49.03
2018-12-20T22:27:36.982Z,47.53
2018-12-20T22:30:06.281Z,46.98
2018-12-20T22:32:34.148Z,48.15
2018-12-20T22:35:02.015Z,54.45
2018-12-20T22:37:29.854Z,53.60
2018-12-20T22:39:57.645Z,51.00
2018-12-20T22:42:25.414Z,50.73
2018-12-20T22:44:53.226Z,50.12
2018-12-20T22:47:21.071Z,53.45
2018-12-20T22:49:49.003Z,55.65
2018-12-20T22:52:16.875Z,54.05
2018-12-20T22:54:44.579Z,57.98
2018-12-20T22:57:12.407Z,60.52
2018-12-20T22:59:40.109Z,57.73
2018-12-20T23:02:08.546Z,61.77
2018-12-20T23:04:36.323Z,61.08
2018-12-20T23:07:04.033Z,52.35
2018-12-20T23:09:32.336Z,54.03
2018-12-20T23:12:00.395Z,53.42
2018-12-20T23:14:28.085Z,58.13
2018-12-20T23:16:55.784Z,59.60
2018-12-20T23:19:23.613Z,58.92
2018-12-20T23:21:51.329Z,60.08
2018-12-20T23:24:19.040Z,57.65
2018-12-20T23:26:46.738Z,60.25
2018-12-20T23:29:14.443Z,54.53
2018-12-20T23:31:42.204Z,51.77
2018-12-20T23:34:09.898Z,48.65
2018-12-20T23:36:37.600Z,48.13
2018-12-20T23:39:05.921Z,46.50
2018-12-20T23:41:33.908Z,49.18
2018-12-20T23:44:01.613Z,45.50
2018-12-20T23:46:29.632Z,48.75
2018-12-20T23:48:57.344Z,50.43
2018-12-20T23:51:25.185Z,50.40
2018-12-20T23:53:52.928Z,47.98
2018-12-20T23:56:20.632Z,48.68
2018-12-20T23:58:48.336Z,51.13
